createdAt,value
2018-06-16T00:01:04.176Z,17.70
2018-06-16T00:03:32.822Z,17.70
2018-06-16T00:06:01.453Z,17.60
2018-06-16T00:08:30.090Z,17.60
2018-06-16T00:10:58.686Z,17.50
2018-06-16T00:13:27.295Z,17.50
2018-06-16T00:15:55.932Z,17.50
2018-06-16T00:18:24.582Z,17.50
2018-06-16T00:20:53.522Z,17.50
2018-06-16T00:23:22.145Z,17.50
2018-06-16T00:25:50.770Z,17.50
2018-06-16T00:28:19.401Z,17.50
2018-06-16T00:30:48.025Z,17.40
2018-06-16T00:33:16.792Z,17.40
2018-06-16T00:35:45.363Z,17.40
2018-06-16T00:38:13.979Z,17.30
2018-06-16T00:40:42.629Z,17.30
2018-06-16T00:43:11.265Z,17.30
2018-06-16T00:45:39.867Z,17.30
2018-06-16T00:48:08.485Z,17.20
2018-06-16T00:50:37.089Z,17.20
2018-06-16T00:53:05.769Z,17.10
2018-06-16T00:55:34.359Z,17.10
2018-06-16T00:58:02.989Z,17.10
2018-06-16T01:00:31.654Z,17.00
2018-06-16T01:03:00.392Z,17.00
2018-06-16T01:05:29.040Z,17.00
2018-06-16T01:07:57.676Z,16.90
2018-06-16T01:10:26.294Z,17.00
2018-06-16T01:12:54.900Z,17.00
2018-06-16T01:15:23.480Z,17.00
2018-06-16T01:17:52.152Z,17.00
2018-06-16T01:20:20.782Z,16.90
2018-06-16T01:22:49.395Z,16.80
2018-06-16T01:25:17.986Z,16.60
2018-06-16T01:27:46.597Z,16.60
2018-06-16T01:30:15.270Z,16.60
2018-06-16T01:32:43.870Z,16.60
2018-06-16T01:35:12.488Z,16.60
2018-06-16T01:37:41.069Z,16.60
2018-06-16T01:40:09.718Z,16.60
2018-06-16T01:42:38.352Z,16.60
2018-06-16T01:45:07.016Z,16.50
2018-06-16T01:47:35.816Z,16.50
2018-06-16T01:50:04.464Z,16.40
2018-06-16T01:52:33.086Z,16.30
2018-06-16T01:55:01.722Z,16.20
2018-06-16T01:57:30.356Z,16.30
2018-06-16T01:59:59.165Z,16.30
2018-06-16T02:02:27.785Z,16.30
2018-06-16T02:04:56.381Z,16.30
2018-06-16T02:07:25.004Z,16.40
2018-06-16T02:09:54.059Z,16.40
2018-06-16T02:12:22.820Z,16.40
2018-06-16T02:14:51.406Z,16.30
2018-06-16T02:17:20.028Z,16.10
2018-06-16T02:19:48.660Z,15.90
2018-06-16T02:22:17.322Z,15.90
2018-06-16T02:24:45.940Z,15.90
2018-06-16T02:27:14.576Z,15.90
2018-06-16T02:29:43.210Z,15.90
2018-06-16T02:32:11.893Z,15.90
2018-06-16T02:34:40.560Z,15.90
2018-06-16T02:37:09.205Z,15.80
2018-06-16T02:39:37.859Z,15.70
2018-06-16T02:42:06.479Z,15.70
2018-06-16T02:44:35.158Z,15.70
2018-06-16T02:47:03.794Z,15.70
2018-06-16T02:49:32.566Z,15.70
2018-06-16T02:52:01.167Z,15.80
2018-06-16T02:54:29.776Z,15.80
2018-06-16T02:56:58.400Z,15.80
2018-06-16T02:59:26.988Z,15.80
2018-06-16T03:01:55.821Z,15.80
2018-06-16T03:04:24.462Z,15.80
2018-06-16T03:06:53.082Z,15.70
2018-06-16T03:09:21.771Z,15.80
2018-06-16T03:11:50.358Z,15.70
2018-06-16T03:14:19.144Z,15.70
2018-06-16T03:16:47.787Z,15.60
2018-06-16T03:19:16.396Z,15.40
2018-06-16T03:21:45.005Z,15.40
2018-06-16T03:24:13.610Z,15.30
2018-06-16T03:26:42.252Z,15.30
2018-06-16T03:29:10.876Z,15.30
2018-06-16T03:31:39.500Z,15.30
2018-06-16T03:34:08.142Z,15.30
2018-06-16T03:36:36.763Z,15.40
2018-06-16T03:39:06.948Z,15.30
2018-06-16T03:41:35.604Z,15.40
2018-06-16T03:44:05.002Z,15.40
2018-06-16T03:46:33.651Z,15.40
2018-06-16T03:49:02.336Z,15.50
2018-06-16T03:51:30.983Z,15.50
2018-06-16T03:53:59.641Z,15.60
2018-06-16T03:56:28.326Z,15.60
2018-06-16T03:58:56.949Z,15.60
2018-06-16T04:01:25.536Z,15.70
2018-06-16T04:03:54.187Z,15.70
2018-06-16T04:06:22.848Z,15.70
2018-06-16T04:08:51.471Z,15.70
2018-06-16T04:11:20.113Z,15.60
2018-06-16T04:13:48.741Z,15.60
2018-06-16T04:16:17.376Z,15.50
2018-06-16T04:18:46.019Z,15.50
2018-06-16T04:21:14.604Z,15.60
2018-06-16T04:23:43.208Z,15.50
2018-06-16T04:26:11.813Z,15.60
2018-06-16T04:28:40.463Z,15.60
2018-06-16T04:31:09.089Z,15.60
2018-06-16T04:33:37.704Z,15.60
2018-06-16T04:36:06.529Z,15.60
2018-06-16T04:38:35.193Z,15.60
2018-06-16T04:41:03.814Z,15.60
2018-06-16T04:43:32.440Z,15.70
2018-06-16T04:46:01.024Z,15.70
2018-06-16T04:48:29.710Z,15.80
2018-06-16T04:50:58.336Z,15.90
2018-06-16T04:53:26.976Z,15.90
2018-06-16T04:55:55.591Z,16.00
2018-06-16T04:58:24.261Z,16.00
2018-06-16T05:00:52.913Z,16.10
2018-06-16T05:03:21.591Z,16.10
2018-06-16T05:05:50.213Z,16.20
2018-06-16T05:08:18.953Z,16.30
2018-06-16T05:10:47.653Z,16.40
2018-06-16T05:13:16.325Z,16.40
2018-06-16T05:15:44.946Z,16.50
2018-06-16T05:18:13.559Z,16.50
2018-06-16T05:20:42.191Z,16.60
2018-06-16T05:23:10.779Z,16.60
2018-06-16T05:25:40.647Z,16.70
2018-06-16T05:28:09.402Z,16.70
2018-06-16T05:30:38.042Z,16.80
2018-06-16T05:33:06.937Z,16.90
2018-06-16T05:35:35.534Z,17.00
2018-06-16T05:38:04.178Z,17.10
2018-06-16T05:40:32.777Z,17.10
2018-06-16T05:43:01.404Z,17.20
2018-06-16T05:45:30.595Z,17.20
2018-06-16T05:47:59.212Z,17.30
2018-06-16T05:50:28.443Z,17.30
2018-06-16T05:52:57.042Z,17.40
2018-06-16T05:55:25.747Z,17.40
2018-06-16T05:57:54.367Z,17.40
2018-06-16T06:00:22.955Z,17.40
2018-06-16T06:02:51.577Z,17.40
2018-06-16T06:05:20.231Z,17.40
2018-06-16T06:07:49.060Z,17.50
2018-06-16T06:10:18.522Z,17.50
2018-06-16T06:12:47.332Z,17.60
2018-06-16T06:15:15.976Z,17.60
2018-06-16T06:17:44.597Z,17.70
2018-06-16T06:20:13.224Z,17.80
2018-06-16T06:22:41.831Z,17.90
2018-06-16T06:25:10.460Z,17.90
2018-06-16T06:27:39.102Z,18.00
2018-06-16T06:30:07.757Z,18.10
2018-06-16T06:32:36.362Z,18.10
2018-06-16T06:35:04.998Z,18.20
2018-06-16T06:37:33.615Z,18.20
2018-06-16T06:40:02.288Z,18.30
2018-06-16T06:42:30.874Z,18.40
2018-06-16T06:44:59.507Z,18.50
2018-06-16T06:47:28.115Z,18.60
2018-06-16T06:49:56.764Z,18.60
2018-06-16T06:52:25.481Z,18.60
2018-06-16T06:54:54.396Z,18.70
2018-06-16T06:57:23.019Z,18.70
2018-06-16T06:59:51.617Z,18.80
2018-06-16T07:02:20.220Z,18.90
2018-06-16T07:04:48.931Z,18.90
2018-06-16T07:07:17.538Z,19.00
2018-06-16T07:09:46.175Z,19.10
2018-06-16T07:12:14.780Z,19.20
2018-06-16T07:14:49.768Z,19.30
2018-06-16T07:17:18.395Z,19.40
2018-06-16T07:19:47.029Z,19.50
2018-06-16T07:22:15.656Z,19.60
2018-06-16T07:24:44.275Z,19.60
2018-06-16T07:27:12.982Z,19.60
2018-06-16T07:29:41.561Z,19.70
2018-06-16T07:32:10.299Z,19.80
2018-06-16T07:34:38.924Z,19.80
2018-06-16T07:37:07.543Z,19.90
2018-06-16T07:39:36.212Z,20.00
2018-06-16T07:42:04.867Z,20.00
2018-06-16T07:44:33.484Z,20.10
2018-06-16T07:47:02.171Z,20.20
2018-06-16T07:49:30.805Z,20.30
2018-06-16T07:51:59.445Z,20.30
2018-06-16T07:54:28.088Z,20.30
2018-06-16T07:56:56.799Z,20.40
2018-06-16T07:59:25.577Z,20.50
2018-06-16T08:01:54.225Z,20.60
2018-06-16T08:04:22.869Z,20.50
2018-06-16T08:06:51.455Z,20.40
2018-06-16T08:09:20.094Z,20.50
2018-06-16T08:11:48.729Z,20.60
2018-06-16T08:14:17.349Z,20.60
2018-06-16T08:16:45.985Z,20.60
2018-06-16T08:19:14.609Z,20.50
2018-06-16T08:21:43.291Z,20.40
2018-06-16T08:24:11.900Z,20.50
2018-06-16T08:26:40.506Z,20.40
2018-06-16T08:29:09.153Z,20.50
2018-06-16T08:31:37.787Z,20.50
2018-06-16T08:34:06.416Z,20.60
2018-06-16T08:36:35.022Z,20.60
2018-06-16T08:39:03.985Z,20.70
2018-06-16T08:41:32.620Z,20.60
2018-06-16T08:44:01.237Z,20.70
2018-06-16T08:46:29.841Z,20.60
2018-06-16T08:48:58.472Z,20.60
2018-06-16T08:51:27.104Z,20.60
2018-06-16T08:53:55.732Z,20.70
2018-06-16T08:56:24.454Z,20.70
2018-06-16T08:58:53.102Z,20.80
2018-06-16T09:01:21.783Z,20.80
2018-06-16T09:03:50.541Z,20.80
2018-06-16T09:06:20.013Z,20.80
2018-06-16T09:08:48.629Z,20.80
2018-06-16T09:11:17.286Z,20.80
2018-06-16T09:13:45.922Z,20.90
2018-06-16T09:16:14.537Z,20.90
2018-06-16T09:18:43.211Z,20.90
2018-06-16T09:21:11.816Z,20.90
2018-06-16T09:23:40.422Z,21.10
2018-06-16T09:26:09.060Z,21.20
2018-06-16T09:28:37.635Z,21.30
2018-06-16T09:31:06.567Z,21.20
2018-06-16T09:33:35.210Z,21.20
2018-06-16T09:36:03.865Z,21.30
2018-06-16T09:38:32.506Z,21.40
2018-06-16T09:41:01.113Z,21.50
2018-06-16T09:43:29.753Z,21.60
2018-06-16T09:45:58.388Z,21.70
2018-06-16T09:48:26.997Z,21.80
2018-06-16T09:50:55.627Z,21.90
2018-06-16T09:53:24.210Z,22.00
2018-06-16T09:55:52.962Z,22.10
2018-06-16T09:58:21.551Z,22.10
2018-06-16T10:00:50.197Z,22.20
2018-06-16T10:03:18.875Z,22.30
2018-06-16T10:05:47.454Z,22.40
2018-06-16T10:08:16.077Z,22.60
2018-06-16T10:10:44.735Z,22.60
2018-06-16T10:13:13.356Z,22.80
2018-06-16T10:15:42.085Z,22.80
2018-06-16T10:18:10.737Z,22.80
2018-06-16T10:20:39.375Z,22.80
2018-06-16T10:23:07.976Z,22.90
2018-06-16T10:25:36.578Z,23.00
2018-06-16T10:28:05.216Z,22.90
2018-06-16T10:30:34.712Z,22.80
2018-06-16T10:33:03.361Z,22.90
2018-06-16T10:35:31.951Z,22.90
2018-06-16T10:38:00.545Z,23.00
2018-06-16T10:40:29.156Z,23.20
2018-06-16T10:42:57.795Z,23.20
2018-06-16T10:45:26.474Z,23.40
2018-06-16T10:47:55.080Z,23.30
2018-06-16T10:50:23.686Z,23.40
2018-06-16T10:52:52.420Z,23.40
2018-06-16T10:55:21.052Z,23.30
2018-06-16T10:57:49.745Z,23.30
2018-06-16T11:00:18.319Z,23.20
2018-06-16T11:02:46.933Z,23.20
2018-06-16T11:05:15.563Z,23.10
2018-06-16T11:07:44.171Z,22.90
2018-06-16T11:10:12.879Z,23.00
2018-06-16T11:12:41.475Z,23.10
2018-06-16T11:15:10.106Z,23.10
2018-06-16T11:17:38.718Z,23.20
2018-06-16T11:20:07.329Z,23.30
2018-06-16T11:22:35.990Z,23.30
2018-06-16T11:25:04.613Z,23.30
2018-06-16T11:27:33.298Z,23.30
2018-06-16T11:30:01.898Z,23.30
2018-06-16T11:32:30.481Z,23.20
2018-06-16T11:34:59.128Z,23.00
2018-06-16T11:37:27.884Z,23.00
2018-06-16T11:39:56.505Z,22.90
2018-06-16T11:42:25.115Z,22.90
2018-06-16T11:44:53.701Z,23.10
2018-06-16T11:47:22.347Z,23.10
2018-06-16T11:49:50.941Z,23.20
2018-06-16T11:52:19.601Z,23.30
2018-06-16T11:54:48.961Z,23.50
2018-06-16T11:57:17.812Z,23.60
2018-06-16T11:59:50.553Z,23.70
2018-06-16T12:05:15.686Z,24.00
2018-06-16T12:07:44.337Z,24.20
2018-06-16T12:10:13.013Z,23.90
2018-06-16T12:12:42.005Z,23.80
2018-06-16T12:15:10.637Z,24.10
2018-06-16T12:17:39.312Z,24.20
2018-06-16T12:20:07.965Z,24.10
2018-06-16T12:22:36.613Z,23.80
2018-06-16T12:25:05.278Z,23.70
2018-06-16T12:27:33.930Z,23.40
2018-06-16T12:30:02.712Z,23.20
2018-06-16T12:32:31.447Z,23.00
2018-06-16T12:35:00.091Z,22.80
2018-06-16T12:37:28.738Z,22.60
2018-06-16T12:39:57.383Z,22.40
2018-06-16T12:42:26.064Z,22.30
2018-06-16T12:44:54.745Z,22.30
2018-06-16T12:47:23.390Z,22.30
2018-06-16T12:49:52.084Z,22.40
2018-06-16T12:52:20.700Z,22.40
2018-06-16T12:54:49.328Z,22.40
2018-06-16T12:57:18.064Z,22.40
2018-06-16T12:59:46.709Z,22.50
2018-06-16T13:02:15.368Z,22.70
2018-06-16T13:04:44.077Z,22.80
2018-06-16T13:07:13.047Z,22.90
2018-06-16T13:09:41.732Z,22.90
2018-06-16T13:12:10.417Z,23.00
2018-06-16T13:14:39.085Z,22.90
2018-06-16T13:17:07.717Z,22.80
2018-06-16T13:19:36.356Z,22.80
2018-06-16T13:22:05.063Z,22.70
2018-06-16T13:24:33.867Z,22.70
2018-06-16T13:27:02.613Z,22.80
2018-06-16T13:29:31.287Z,22.90
2018-06-16T13:31:59.948Z,23.00
2018-06-16T13:34:28.680Z,23.20
2018-06-16T13:36:57.381Z,23.40
2018-06-16T13:39:26.104Z,23.40
2018-06-16T13:41:54.761Z,23.70
2018-06-16T13:44:23.420Z,23.80
2018-06-16T13:46:52.088Z,24.00
2018-06-16T13:49:20.733Z,23.90
2018-06-16T13:51:49.408Z,24.00
2018-06-16T13:54:18.971Z,24.30
2018-06-16T13:56:47.694Z,24.40
2018-06-16T13:59:16.298Z,24.40
2018-06-16T14:01:44.905Z,24.30
2018-06-16T14:04:13.651Z,24.10
2018-06-16T14:06:42.343Z,24.40
2018-06-16T14:09:11.366Z,24.70
2018-06-16T14:11:39.988Z,25.10
2018-06-16T14:14:08.636Z,25.50
2018-06-16T14:16:37.260Z,25.80
2018-06-16T14:19:05.883Z,25.90
2018-06-16T14:21:34.509Z,26.10
2018-06-16T14:24:03.147Z,26.20
2018-06-16T14:26:31.780Z,26.20
2018-06-16T14:29:00.420Z,25.90
2018-06-16T14:31:29.051Z,25.90
2018-06-16T14:33:57.688Z,26.00
2018-06-16T14:36:26.299Z,25.70
2018-06-16T14:38:54.964Z,25.50
2018-06-16T14:41:23.688Z,25.80
2018-06-16T14:43:52.358Z,26.00
2018-06-16T14:46:20.968Z,26.20
2018-06-16T14:48:49.599Z,25.90
2018-06-16T14:51:18.243Z,26.00
2018-06-16T14:53:46.872Z,26.00
2018-06-16T14:56:15.480Z,25.70
2018-06-16T14:58:44.104Z,25.70
2018-06-16T15:01:12.765Z,25.80
2018-06-16T15:03:41.388Z,25.80
2018-06-16T15:06:09.976Z,25.60
2018-06-16T15:08:38.572Z,25.50
2018-06-16T15:11:07.184Z,25.70
2018-06-16T15:13:35.823Z,25.70
2018-06-16T15:16:04.456Z,25.60
2018-06-16T15:18:33.089Z,25.70
2018-06-16T15:21:01.728Z,25.70
2018-06-16T15:23:30.363Z,25.50
2018-06-16T15:25:58.990Z,25.40
2018-06-16T15:28:27.593Z,25.30
2018-06-16T15:30:56.214Z,25.60
2018-06-16T15:33:24.883Z,25.60
2018-06-16T15:35:53.615Z,25.50
2018-06-16T15:38:22.240Z,25.40
2018-06-16T15:40:50.910Z,25.30
2018-06-16T15:43:19.550Z,25.10
2018-06-16T15:45:48.138Z,24.90
2018-06-16T15:48:16.807Z,24.90
2018-06-16T15:50:45.394Z,24.80
2018-06-16T15:53:14.016Z,24.70
2018-06-16T15:55:42.686Z,24.80
2018-06-16T15:58:11.309Z,25.00
2018-06-16T16:00:39.949Z,25.10
2018-06-16T16:03:08.621Z,25.20
2018-06-16T16:05:37.371Z,25.30
2018-06-16T16:08:06.195Z,25.70
2018-06-16T16:10:34.887Z,25.70
2018-06-16T16:13:03.844Z,25.40
2018-06-16T16:15:32.439Z,25.10
2018-06-16T16:18:01.070Z,25.10
2018-06-16T16:20:29.718Z,24.90
2018-06-16T16:22:58.341Z,24.70
2018-06-16T16:25:26.964Z,24.50
2018-06-16T16:27:55.559Z,24.40
2018-06-16T16:30:24.224Z,24.30
2018-06-16T16:32:52.841Z,24.30
2018-06-16T16:35:21.448Z,24.20
2018-06-16T16:37:50.074Z,24.20
2018-06-16T16:40:18.751Z,24.10
2018-06-16T16:42:47.396Z,24.10
2018-06-16T16:45:22.726Z,24.00
2018-06-16T16:47:51.586Z,24.00
2018-06-16T16:50:20.460Z,23.90
2018-06-16T16:52:49.095Z,23.90
2018-06-16T16:55:17.706Z,23.90
2018-06-16T16:57:46.338Z,23.80
2018-06-16T17:00:15.238Z,23.70
2018-06-16T17:02:43.952Z,23.70
2018-06-16T17:05:12.571Z,23.50
2018-06-16T17:07:41.211Z,23.40
2018-06-16T17:10:09.864Z,23.30
2018-06-16T17:12:38.530Z,23.30
2018-06-16T17:15:07.180Z,23.30
2018-06-16T17:17:36.710Z,23.20
2018-06-16T17:20:06.337Z,23.10
2018-06-16T17:22:35.017Z,22.80
2018-06-16T17:25:03.675Z,22.60
2018-06-16T17:27:32.336Z,22.20
2018-06-16T17:30:01.016Z,21.70
2018-06-16T17:32:29.667Z,21.30
2018-06-16T17:34:58.321Z,20.70
2018-06-16T17:37:26.967Z,20.30
2018-06-16T17:39:55.588Z,20.00
2018-06-16T17:42:24.534Z,19.80
2018-06-16T17:44:53.225Z,19.50
2018-06-16T17:47:21.841Z,19.40
2018-06-16T17:49:50.459Z,19.20
2018-06-16T17:52:19.165Z,19.20
2018-06-16T17:54:47.786Z,19.10
2018-06-16T17:57:16.394Z,19.00
2018-06-16T17:59:45.052Z,19.00
2018-06-16T18:02:13.714Z,19.00
2018-06-16T18:04:42.517Z,18.90
2018-06-16T18:07:11.147Z,18.90
2018-06-16T18:09:39.781Z,18.90
2018-06-16T18:12:08.392Z,18.90
2018-06-16T18:14:37.024Z,18.90
2018-06-16T18:17:05.723Z,18.90
2018-06-16T18:19:34.386Z,18.90
2018-06-16T18:22:03.061Z,19.00
2018-06-16T18:24:31.702Z,19.00
2018-06-16T18:27:00.376Z,19.10
2018-06-16T18:29:28.980Z,19.20
2018-06-16T18:31:59.762Z,19.30
2018-06-16T18:34:28.407Z,19.50
2018-06-16T18:39:55.652Z,19.50
2018-06-16T18:42:24.264Z,19.40
2018-06-16T18:44:52.991Z,19.30
2018-06-16T18:47:21.705Z,19.20
2018-06-16T18:49:50.376Z,19.00
2018-06-16T18:52:19.064Z,19.00
2018-06-16T18:54:47.732Z,19.00
2018-06-16T18:57:16.382Z,18.90
2018-06-16T18:59:45.068Z,18.90
2018-06-16T19:02:13.931Z,18.90
2018-06-16T19:04:42.670Z,18.90
2018-06-16T19:07:11.632Z,18.90
2018-06-16T19:09:40.301Z,18.80
2018-06-16T19:12:09.202Z,18.80
2018-06-16T19:14:38.151Z,18.80
2018-06-16T19:17:07.188Z,18.80
2018-06-16T19:19:36.069Z,18.80
2018-06-16T19:22:04.936Z,18.80
2018-06-16T19:24:33.871Z,18.80
2018-06-16T19:27:02.897Z,18.80
2018-06-16T19:29:31.853Z,18.70
2018-06-16T19:32:01.134Z,18.70
2018-06-16T19:34:30.201Z,18.70
2018-06-16T19:36:59.334Z,18.70
2018-06-16T19:39:28.278Z,18.60
2018-06-16T19:47:43.336Z,18.70
2018-06-16T19:50:12.029Z,18.70
2018-06-16T19:52:41.147Z,18.60
2018-06-16T19:55:09.932Z,18.60
2018-06-16T19:57:38.584Z,18.70
2018-06-16T20:00:07.573Z,18.70
2018-06-16T20:02:36.275Z,18.70
2018-06-16T20:05:05.059Z,18.60
2018-06-16T20:07:33.825Z,18.50
2018-06-16T20:10:03.898Z,18.50
2018-06-16T20:12:33.143Z,18.40
2018-06-16T20:15:03.276Z,18.30
2018-06-16T20:17:34.880Z,18.30
2018-06-16T20:20:03.972Z,18.30
2018-06-16T20:22:32.926Z,18.30
2018-06-16T20:25:02.021Z,18.30
2018-06-16T20:27:31.174Z,18.30
2018-06-16T20:30:00.112Z,18.30
2018-06-16T20:32:29.161Z,18.30
2018-06-16T20:34:58.209Z,18.30
2018-06-16T20:37:27.195Z,18.20
2018-06-16T20:39:57.080Z,18.30
2018-06-16T20:42:26.128Z,18.30
2018-06-16T20:44:55.051Z,18.40
2018-06-16T20:47:24.011Z,18.40
2018-06-16T20:49:52.842Z,18.40
2018-06-16T20:52:21.721Z,18.40
2018-06-16T20:54:50.635Z,18.40
2018-06-16T21:03:12.326Z,18.30
2018-06-16T21:05:43.829Z,18.30
2018-06-16T21:08:18.034Z,18.30
2018-06-16T21:10:50.784Z,18.20
2018-06-16T21:16:14.225Z,18.00
2018-06-16T21:18:44.640Z,17.90
2018-06-16T21:21:18.229Z,17.90
2018-06-16T21:23:49.196Z,17.80
2018-06-16T21:26:22.159Z,17.80
2018-06-16T21:28:57.529Z,17.80
2018-06-16T21:31:29.660Z,17.70
2018-06-16T21:34:01.317Z,17.70
2018-06-16T21:36:30.275Z,17.60
2018-06-16T21:38:59.820Z,17.60
2018-06-16T21:41:28.833Z,17.60
2018-06-16T21:43:57.847Z,17.60
2018-06-16T21:46:26.628Z,17.60
2018-06-16T21:48:55.447Z,17.60
2018-06-16T21:51:24.062Z,17.50
2018-06-16T21:53:52.789Z,17.50
2018-06-16T21:56:21.564Z,17.50
2018-06-16T21:58:50.215Z,17.50
2018-06-16T22:01:18.896Z,17.40
2018-06-16T22:03:47.565Z,17.40
2018-06-16T22:06:16.207Z,17.40
2018-06-16T22:08:44.884Z,17.30
2018-06-16T22:11:13.546Z,17.20
2018-06-16T22:13:42.272Z,17.20
2018-06-16T22:16:10.924Z,17.20
2018-06-16T22:18:39.566Z,17.20
2018-06-16T22:21:08.232Z,17.10
2018-06-16T22:23:36.939Z,17.10
2018-06-16T22:26:05.714Z,17.10
2018-06-16T22:28:34.349Z,17.00
2018-06-16T22:31:03.066Z,17.00
2018-06-16T22:33:31.671Z,17.00
2018-06-16T22:36:01.415Z,17.00
2018-06-16T22:38:30.009Z,17.00
2018-06-16T22:40:58.797Z,17.00
2018-06-16T22:43:27.452Z,17.00
2018-06-16T22:45:56.120Z,17.00
2018-06-16T22:48:24.778Z,17.00
2018-06-16T22:50:53.399Z,17.00
2018-06-16T22:53:22.008Z,17.00
2018-06-16T22:55:50.646Z,17.00
2018-06-16T22:58:19.295Z,17.10
2018-06-16T23:00:47.978Z,17.10
2018-06-16T23:03:16.561Z,17.00
2018-06-16T23:05:45.193Z,17.00
2018-06-16T23:08:13.776Z,17.10
2018-06-16T23:10:42.398Z,17.10
2018-06-16T23:13:10.999Z,17.10
2018-06-16T23:15:40.891Z,17.10
2018-06-16T23:18:09.528Z,17.20
2018-06-16T23:20:38.154Z,17.20
2018-06-16T23:23:06.726Z,17.20
2018-06-16T23:25:35.353Z,17.20
2018-06-16T23:28:03.929Z,17.10
2018-06-16T23:30:32.602Z,17.10
2018-06-16T23:33:01.264Z,17.00
2018-06-16T23:35:30.292Z,17.00
2018-06-16T23:37:58.998Z,17.00
2018-06-16T23:40:27.655Z,17.00
2018-06-16T23:42:57.294Z,16.90
2018-06-16T23:45:25.951Z,16.90
2018-06-16T23:47:54.639Z,16.80
2018-06-16T23:50:23.323Z,16.80
2018-06-16T23:52:51.946Z,16.70
2018-06-16T23:55:20.610Z,16.70
2018-06-16T23:57:49.203Z,16.70
